Sase Martie, Romania
Current Conditions -  °F | °C
As of 7:00 AM on Sunday 26 Oct 2014 (Local Time) from LRTC Reporting Station
Broken Clouds Broken Clouds  
Wind Chill: 25°   Ceiling: 2200
Heat Index: 36°   Visibility: 6mi
Dew Point: 28°   Wind: 20mph
Humidity: 75%   Direction: 350°N
Pressure: 30.36"   Gusts: NA
Location:  44.81°N, 28.9°E
Report Text: LRTC 260400Z AUTO 35017KT 9999 FEW016 BKN022 02/M02 Q1028
Loading
Personal Weather Stations






























Interactive Weather Map
Tropical Storm Tracking
New forecast layout! Learn more

10-Day Weather Forecast

Advertisements
Track Severe Weather on mobile